sensor_id;sensor_type;location;lat;lon;timestamp;temperature;humidity
3416;DHT22;1721;51.238;9.562;2022-12-20T00:01:48;7.00;99.60
3416;DHT22;1721;51.238;9.562;2022-12-20T00:04:14;6.90;99.20
3416;DHT22;1721;51.238;9.562;2022-12-20T00:06:40;6.90;99.20
3416;DHT22;1721;51.238;9.562;2022-12-20T00:09:07;7.00;99.20
3416;DHT22;1721;51.238;9.562;2022-12-20T00:11:33;7.10;99.20
3416;DHT22;1721;51.238;9.562;2022-12-20T00:14:00;7.00;99.00
3416;DHT22;1721;51.238;9.562;2022-12-20T00:16:27;6.90;99.10
3416;DHT22;1721;51.238;9.562;2022-12-20T00:18:55;7.00;99.20
3416;DHT22;1721;51.238;9.562;2022-12-20T00:21:21;6.80;99.20
3416;DHT22;1721;51.238;9.562;2022-12-20T00:23:47;6.70;99.40
3416;DHT22;1721;51.238;9.562;2022-12-20T00:26:15;6.70;99.60
3416;DHT22;1721;51.238;9.562;2022-12-20T00:28:43;6.80;99.80
3416;DHT22;1721;51.238;9.562;2022-12-20T00:31:10;6.90;99.40
3416;DHT22;1721;51.238;9.562;2022-12-20T00:33:37;7.00;99.20
3416;DHT22;1721;51.238;9.562;2022-12-20T00:36:05;7.10;99.10
3416;DHT22;1721;51.238;9.562;2022-12-20T00:38:31;7.10;99.00
3416;DHT22;1721;51.238;9.562;2022-12-20T00:41:06;7.10;99.10
3416;DHT22;1721;51.238;9.562;2022-12-20T00:43:33;7.00;99.20
3416;DHT22;1721;51.238;9.562;2022-12-20T00:45:59;7.00;99.20
3416;DHT22;1721;51.238;9.562;2022-12-20T00:48:26;6.90;99.40
3416;DHT22;1721;51.238;9.562;2022-12-20T00:50:52;7.00;99.50
3416;DHT22;1721;51.238;9.562;2022-12-20T00:53:21;7.00;99.30
3416;DHT22;1721;51.238;9.562;2022-12-20T00:55:47;6.90;99.60
3416;DHT22;1721;51.238;9.562;2022-12-20T00:58:12;7.00;99.90
3416;DHT22;1721;51.238;9.562;2022-12-20T01:00:38;7.00;99.60
3416;DHT22;1721;51.238;9.562;2022-12-20T01:03:04;7.00;99.70
3416;DHT22;1721;51.238;9.562;2022-12-20T01:05:31;6.90;99.90
3416;DHT22;1721;51.238;9.562;2022-12-20T01:07:56;6.90;99.90
3416;DHT22;1721;51.238;9.562;2022-12-20T01:10:22;6.90;99.90
3416;DHT22;1721;51.238;9.562;2022-12-20T01:12:48;6.90;99.90
3416;DHT22;1721;51.238;9.562;2022-12-20T01:15:13;7.00;99.90
3416;DHT22;1721;51.238;9.562;2022-12-20T01:17:40;6.90;99.80
3416;DHT22;1721;51.238;9.562;2022-12-20T01:20:06;7.00;99.90
3416;DHT22;1721;51.238;9.562;2022-12-20T01:22:31;7.00;99.90
3416;DHT22;1721;51.238;9.562;2022-12-20T01:24:57;7.00;99.90
3416;DHT22;1721;51.238;9.562;2022-12-20T01:27:22;7.00;99.90
3416;DHT22;1721;51.238;9.562;2022-12-20T01:29:48;7.00;99.90
3416;DHT22;1721;51.238;9.562;2022-12-20T01:32:14;7.00;99.90
3416;DHT22;1721;51.238;9.562;2022-12-20T01:34:39;7.00;99.90
3416;DHT22;1721;51.238;9.562;2022-12-20T01:37:05;7.00;99.90
3416;DHT22;1721;51.238;9.562;2022-12-20T01:39:30;7.00;99.90
3416;DHT22;1721;51.238;9.562;2022-12-20T01:41:56;7.00;99.90
3416;DHT22;1721;51.238;9.562;2022-12-20T01:46:48;7.10;99.90
3416;DHT22;1721;51.238;9.562;2022-12-20T01:51:44;7.10;99.90
3416;DHT22;1721;51.238;9.562;2022-12-20T01:54:15;7.10;99.90
3416;DHT22;1721;51.238;9.562;2022-12-20T01:56:46;7.10;99.90
3416;DHT22;1721;51.238;9.562;2022-12-20T01:59:13;7.10;99.90
3416;DHT22;1721;51.238;9.562;2022-12-20T02:01:41;7.20;99.90
3416;DHT22;1721;51.238;9.562;2022-12-20T02:04:07;7.30;99.90
3416;DHT22;1721;51.238;9.562;2022-12-20T02:06:32;7.30;99.90
3416;DHT22;1721;51.238;9.562;2022-12-20T02:08:59;7.30;99.90
3416;DHT22;1721;51.238;9.562;2022-12-20T02:17:06;7.40;99.90
3416;DHT22;1721;51.238;9.562;2022-12-20T02:20:02;7.30;99.90
3416;DHT22;1721;51.238;9.562;2022-12-20T02:22:51;7.20;99.90
3416;DHT22;1721;51.238;9.562;2022-12-20T02:30:20;7.20;99.90
3416;DHT22;1721;51.238;9.562;2022-12-20T02:33:05;7.30;99.90
3416;DHT22;1721;51.238;9.562;2022-12-20T02:35:33;7.40;99.90
3416;DHT22;1721;51.238;9.562;2022-12-20T02:38:04;7.50;99.90
3416;DHT22;1721;51.238;9.562;2022-12-20T02:40:46;7.40;99.90
3416;DHT22;1721;51.238;9.562;2022-12-20T02:43:12;7.40;99.90
3416;DHT22;1721;51.238;9.562;2022-12-20T02:45:58;7.50;99.90
3416;DHT22;1721;51.238;9.562;2022-12-20T02:48:26;7.50;99.90
3416;DHT22;1721;51.238;9.562;2022-12-20T02:50:55;7.50;99.90
3416;DHT22;1721;51.238;9.562;2022-12-20T02:53:22;7.40;99.90
3416;DHT22;1721;51.238;9.562;2022-12-20T02:56:01;7.40;99.90
3416;DHT22;1721;51.238;9.562;2022-12-20T02:58:47;7.50;99.90
3416;DHT22;1721;51.238;9.562;2022-12-20T03:01:22;7.50;99.90
3416;DHT22;1721;51.238;9.562;2022-12-20T03:03:50;7.50;99.90
3416;DHT22;1721;51.238;9.562;2022-12-20T03:06:17;7.50;99.90
3416;DHT22;1721;51.238;9.562;2022-12-20T03:08:42;7.60;99.90
3416;DHT22;1721;51.238;9.562;2022-12-20T03:11:08;7.60;99.90
3416;DHT22;1721;51.238;9.562;2022-12-20T03:13:33;7.60;99.90
3416;DHT22;1721;51.238;9.562;2022-12-20T03:15:59;7.60;99.90
3416;DHT22;1721;51.238;9.562;2022-12-20T03:18:25;7.60;99.90
3416;DHT22;1721;51.238;9.562;2022-12-20T03:20:50;7.70;99.90
3416;DHT22;1721;51.238;9.562;2022-12-20T03:23:16;7.60;99.90
3416;DHT22;1721;51.238;9.562;2022-12-20T03:25:41;7.60;99.90
3416;DHT22;1721;51.238;9.562;2022-12-20T03:28:07;7.70;99.90
3416;DHT22;1721;51.238;9.562;2022-12-20T03:30:32;7.60;99.90
3416;DHT22;1721;51.238;9.562;2022-12-20T03:32:58;7.60;99.90
3416;DHT22;1721;51.238;9.562;2022-12-20T03:35:23;7.50;99.90
3416;DHT22;1721;51.238;9.562;2022-12-20T03:37:49;7.60;99.90
3416;DHT22;1721;51.238;9.562;2022-12-20T03:40:15;7.50;99.90
3416;DHT22;1721;51.238;9.562;2022-12-20T03:42:41;7.60;99.90
3416;DHT22;1721;51.238;9.562;2022-12-20T03:45:06;7.50;99.90
3416;DHT22;1721;51.238;9.562;2022-12-20T03:47:32;7.60;99.90
3416;DHT22;1721;51.238;9.562;2022-12-20T03:49:58;7.50;99.90
3416;DHT22;1721;51.238;9.562;2022-12-20T03:52:23;7.50;99.90
3416;DHT22;1721;51.238;9.562;2022-12-20T03:54:49;7.50;99.90
3416;DHT22;1721;51.238;9.562;2022-12-20T03:57:14;7.60;99.90
3416;DHT22;1721;51.238;9.562;2022-12-20T03:59:40;7.60;99.90
3416;DHT22;1721;51.238;9.562;2022-12-20T04:02:06;7.70;99.90
3416;DHT22;1721;51.238;9.562;2022-12-20T04:04:31;7.80;99.90
3416;DHT22;1721;51.238;9.562;2022-12-20T04:06:57;7.80;99.90
3416;DHT22;1721;51.238;9.562;2022-12-20T04:09:23;7.90;99.90
3416;DHT22;1721;51.238;9.562;2022-12-20T04:11:48;8.00;99.90
3416;DHT22;1721;51.238;9.562;2022-12-20T04:14:14;8.10;99.90
3416;DHT22;1721;51.238;9.562;2022-12-20T04:16:39;8.00;99.90
3416;DHT22;1721;51.238;9.562;2022-12-20T04:19:05;8.10;99.90
3416;DHT22;1721;51.238;9.562;2022-12-20T04:21:32;8.10;99.90
3416;DHT22;1721;51.238;9.562;2022-12-20T04:24:00;8.20;99.90
3416;DHT22;1721;51.238;9.562;2022-12-20T04:26:26;8.30;99.80
3416;DHT22;1721;51.238;9.562;2022-12-20T04:28:52;8.20;99.70
3416;DHT22;1721;51.238;9.562;2022-12-20T04:31:18;8.30;99.70
3416;DHT22;1721;51.238;9.562;2022-12-20T04:33:44;8.30;99.70
3416;DHT22;1721;51.238;9.562;2022-12-20T04:36:10;8.30;99.60
3416;DHT22;1721;51.238;9.562;2022-12-20T04:38:35;8.40;99.60
3416;DHT22;1721;51.238;9.562;2022-12-20T04:41:01;8.30;99.60
3416;DHT22;1721;51.238;9.562;2022-12-20T04:43:26;8.20;99.60
3416;DHT22;1721;51.238;9.562;2022-12-20T04:45:53;8.10;99.90
3416;DHT22;1721;51.238;9.562;2022-12-20T04:48:23;8.10;99.90
3416;DHT22;1721;51.238;9.562;2022-12-20T04:50:52;8.20;99.90
3416;DHT22;1721;51.238;9.562;2022-12-20T04:53:18;8.30;99.90
3416;DHT22;1721;51.238;9.562;2022-12-20T04:56:03;8.10;99.90
3416;DHT22;1721;51.238;9.562;2022-12-20T04:58:29;8.10;99.90
3416;DHT22;1721;51.238;9.562;2022-12-20T05:00:55;8.20;99.90
3416;DHT22;1721;51.238;9.562;2022-12-20T05:03:21;8.20;99.90
3416;DHT22;1721;51.238;9.562;2022-12-20T05:05:47;8.30;99.90
3416;DHT22;1721;51.238;9.562;2022-12-20T05:08:13;8.30;99.90
3416;DHT22;1721;51.238;9.562;2022-12-20T05:10:39;8.30;99.90
3416;DHT22;1721;51.238;9.562;2022-12-20T05:13:05;8.50;99.90
3416;DHT22;1721;51.238;9.562;2022-12-20T05:15:30;8.40;99.90
3416;DHT22;1721;51.238;9.562;2022-12-20T05:17:56;8.50;99.90
3416;DHT22;1721;51.238;9.562;2022-12-20T05:20:28;8.70;99.90
3416;DHT22;1721;51.238;9.562;2022-12-20T05:22:55;8.70;99.90
3416;DHT22;1721;51.238;9.562;2022-12-20T05:25:43;8.60;99.60
3416;DHT22;1721;51.238;9.562;2022-12-20T05:28:28;8.60;99.90
3416;DHT22;1721;51.238;9.562;2022-12-20T05:30:54;8.50;99.70
3416;DHT22;1721;51.238;9.562;2022-12-20T05:33:19;8.60;99.90
3416;DHT22;1721;51.238;9.562;2022-12-20T05:35:45;8.60;99.70
3416;DHT22;1721;51.238;9.562;2022-12-20T05:38:11;8.50;99.60
3416;DHT22;1721;51.238;9.562;2022-12-20T05:40:36;8.40;99.60
3416;DHT22;1721;51.238;9.562;2022-12-20T05:43:02;8.50;99.80
3416;DHT22;1721;51.238;9.562;2022-12-20T05:45:28;8.60;99.90
3416;DHT22;1721;51.238;9.562;2022-12-20T05:47:53;8.60;99.50
3416;DHT22;1721;51.238;9.562;2022-12-20T05:50:19;8.60;99.90
3416;DHT22;1721;51.238;9.562;2022-12-20T05:52:44;8.50;99.80
3416;DHT22;1721;51.238;9.562;2022-12-20T05:55:10;8.50;99.90
3416;DHT22;1721;51.238;9.562;2022-12-20T05:57:36;8.60;99.50
3416;DHT22;1721;51.238;9.562;2022-12-20T06:00:03;8.60;99.80
3416;DHT22;1721;51.238;9.562;2022-12-20T06:02:28;8.70;99.60
3416;DHT22;1721;51.238;9.562;2022-12-20T06:04:54;8.80;99.00
3416;DHT22;1721;51.238;9.562;2022-12-20T06:07:20;8.70;99.20
3416;DHT22;1721;51.238;9.562;2022-12-20T06:09:45;8.60;99.40
3416;DHT22;1721;51.238;9.562;2022-12-20T06:12:11;8.50;99.60
3416;DHT22;1721;51.238;9.562;2022-12-20T06:14:38;8.70;99.60
3416;DHT22;1721;51.238;9.562;2022-12-20T06:17:03;8.70;99.20
3416;DHT22;1721;51.238;9.562;2022-12-20T06:19:29;8.80;99.20
3416;DHT22;1721;51.238;9.562;2022-12-20T06:21:54;8.80;99.10
3416;DHT22;1721;51.238;9.562;2022-12-20T06:24:20;8.60;99.50
3416;DHT22;1721;51.238;9.562;2022-12-20T06:26:50;8.60;99.50
3416;DHT22;1721;51.238;9.562;2022-12-20T06:29:15;8.60;99.30
3416;DHT22;1721;51.238;9.562;2022-12-20T06:31:42;8.60;99.20
3416;DHT22;1721;51.238;9.562;2022-12-20T06:34:08;8.60;99.50
3416;DHT22;1721;51.238;9.562;2022-12-20T06:36:33;8.70;99.30
3416;DHT22;1721;51.238;9.562;2022-12-20T06:38:59;8.80;99.10
3416;DHT22;1721;51.238;9.562;2022-12-20T06:41:25;8.90;99.00
3416;DHT22;1721;51.238;9.562;2022-12-20T06:43:50;8.90;98.70
3416;DHT22;1721;51.238;9.562;2022-12-20T06:46:16;8.90;98.70
3416;DHT22;1721;51.238;9.562;2022-12-20T06:48:42;8.90;98.40
3416;DHT22;1721;51.238;9.562;2022-12-20T06:51:07;8.90;98.40
3416;DHT22;1721;51.238;9.562;2022-12-20T06:53:33;8.90;98.20
3416;DHT22;1721;51.238;9.562;2022-12-20T06:55:58;8.90;98.00
3416;DHT22;1721;51.238;9.562;2022-12-20T06:58:24;8.80;97.80
3416;DHT22;1721;51.238;9.562;2022-12-20T07:00:49;8.80;98.10
3416;DHT22;1721;51.238;9.562;2022-12-20T07:03:15;8.90;98.20
3416;DHT22;1721;51.238;9.562;2022-12-20T07:05:40;8.90;97.90
3416;DHT22;1721;51.238;9.562;2022-12-20T07:08:06;8.70;98.10
3416;DHT22;1721;51.238;9.562;2022-12-20T07:10:33;8.70;98.20
3416;DHT22;1721;51.238;9.562;2022-12-20T07:12:59;8.70;98.00
3416;DHT22;1721;51.238;9.562;2022-12-20T07:15:25;8.60;98.10
3416;DHT22;1721;51.238;9.562;2022-12-20T07:17:50;8.60;98.00
3416;DHT22;1721;51.238;9.562;2022-12-20T07:20:17;8.60;98.00
3416;DHT22;1721;51.238;9.562;2022-12-20T07:22:43;8.50;98.00
3416;DHT22;1721;51.238;9.562;2022-12-20T07:25:09;8.50;98.10
3416;DHT22;1721;51.238;9.562;2022-12-20T07:27:35;8.60;97.90
3416;DHT22;1721;51.238;9.562;2022-12-20T07:30:00;8.50;98.00
3416;DHT22;1721;51.238;9.562;2022-12-20T07:32:26;8.40;98.30
3416;DHT22;1721;51.238;9.562;2022-12-20T07:34:52;8.10;98.70
3416;DHT22;1721;51.238;9.562;2022-12-20T07:37:17;8.00;99.50
3416;DHT22;1721;51.238;9.562;2022-12-20T07:39:43;8.00;99.40
3416;DHT22;1721;51.238;9.562;2022-12-20T07:42:09;8.10;99.60
3416;DHT22;1721;51.238;9.562;2022-12-20T07:44:35;8.30;99.70
3416;DHT22;1721;51.238;9.562;2022-12-20T07:47:00;8.30;99.50
3416;DHT22;1721;51.238;9.562;2022-12-20T07:49:26;8.50;99.60
3416;DHT22;1721;51.238;9.562;2022-12-20T07:51:55;8.40;99.60
3416;DHT22;1721;51.238;9.562;2022-12-20T07:54:28;8.50;99.60
3416;DHT22;1721;51.238;9.562;2022-12-20T07:56:59;8.50;99.50
3416;DHT22;1721;51.238;9.562;2022-12-20T07:59:36;8.60;99.60
3416;DHT22;1721;51.238;9.562;2022-12-20T08:02:03;8.60;99.40
3416;DHT22;1721;51.238;9.562;2022-12-20T08:04:30;8.70;99.30
3416;DHT22;1721;51.238;9.562;2022-12-20T08:06:57;8.80;99.40
3416;DHT22;1721;51.238;9.562;2022-12-20T08:09:27;8.90;99.10
3416;DHT22;1721;51.238;9.562;2022-12-20T08:11:54;8.90;98.80
3416;DHT22;1721;51.238;9.562;2022-12-20T08:14:22;8.80;99.10
3416;DHT22;1721;51.238;9.562;2022-12-20T08:16:48;8.90;99.00
3416;DHT22;1721;51.238;9.562;2022-12-20T08:19:13;9.00;98.70
3416;DHT22;1721;51.238;9.562;2022-12-20T08:21:39;9.00;98.60
3416;DHT22;1721;51.238;9.562;2022-12-20T08:24:04;9.00;98.40
3416;DHT22;1721;51.238;9.562;2022-12-20T08:26:30;9.00;98.50
3416;DHT22;1721;51.238;9.562;2022-12-20T08:28:56;9.10;98.60
3416;DHT22;1721;51.238;9.562;2022-12-20T08:31:22;9.20;98.40
3416;DHT22;1721;51.238;9.562;2022-12-20T08:33:48;9.30;98.40
3416;DHT22;1721;51.238;9.562;2022-12-20T08:36:14;9.30;98.20
3416;DHT22;1721;51.238;9.562;2022-12-20T08:38:40;9.30;98.30
3416;DHT22;1721;51.238;9.562;2022-12-20T08:41:11;9.30;98.40
3416;DHT22;1721;51.238;9.562;2022-12-20T08:43:37;9.20;98.50
3416;DHT22;1721;51.238;9.562;2022-12-20T08:46:04;9.10;98.60
3416;DHT22;1721;51.238;9.562;2022-12-20T08:48:31;9.30;98.60
3416;DHT22;1721;51.238;9.562;2022-12-20T08:50:59;9.20;98.50
3416;DHT22;1721;51.238;9.562;2022-12-20T08:53:25;9.40;98.40
3416;DHT22;1721;51.238;9.562;2022-12-20T08:55:51;9.40;98.30
3416;DHT22;1721;51.238;9.562;2022-12-20T08:58:17;9.40;98.30
3416;DHT22;1721;51.238;9.562;2022-12-20T09:00:43;9.60;98.20
3416;DHT22;1721;51.238;9.562;2022-12-20T09:03:10;9.60;98.30
3416;DHT22;1721;51.238;9.562;2022-12-20T09:05:41;9.70;98.00
3416;DHT22;1721;51.238;9.562;2022-12-20T09:08:07;9.80;98.00
3416;DHT22;1721;51.238;9.562;2022-12-20T09:10:33;9.90;98.00
3416;DHT22;1721;51.238;9.562;2022-12-20T09:12:58;9.90;98.00
3416;DHT22;1721;51.238;9.562;2022-12-20T09:15:24;10.10;97.20
3416;DHT22;1721;51.238;9.562;2022-12-20T09:17:51;10.20;97.40
3416;DHT22;1721;51.238;9.562;2022-12-20T09:20:17;10.20;96.70
3416;DHT22;1721;51.238;9.562;2022-12-20T09:22:43;10.20;96.70
3416;DHT22;1721;51.238;9.562;2022-12-20T09:25:08;10.20;96.40
3416;DHT22;1721;51.238;9.562;2022-12-20T09:27:34;9.90;97.20
3416;DHT22;1721;51.238;9.562;2022-12-20T09:30:00;10.00;97.10
3416;DHT22;1721;51.238;9.562;2022-12-20T09:32:25;10.10;97.00
3416;DHT22;1721;51.238;9.562;2022-12-20T09:34:51;10.30;96.70
3416;DHT22;1721;51.238;9.562;2022-12-20T09:37:16;10.40;96.30
3416;DHT22;1721;51.238;9.562;2022-12-20T09:39:42;10.20;96.20
3416;DHT22;1721;51.238;9.562;2022-12-20T09:42:08;10.00;96.50
3416;DHT22;1721;51.238;9.562;2022-12-20T09:44:37;10.00;96.60
3416;DHT22;1721;51.238;9.562;2022-12-20T09:47:19;10.10;96.70
3416;DHT22;1721;51.238;9.562;2022-12-20T09:49:49;10.10;96.40
3416;DHT22;1721;51.238;9.562;2022-12-20T09:55:39;10.20;96.30
3416;DHT22;1721;51.238;9.562;2022-12-20T10:01:21;10.10;96.50
3416;DHT22;1721;51.238;9.562;2022-12-20T10:03:48;10.10;96.30
3416;DHT22;1721;51.238;9.562;2022-12-20T10:06:22;10.30;96.40
3416;DHT22;1721;51.238;9.562;2022-12-20T10:08:59;10.30;96.50
3416;DHT22;1721;51.238;9.562;2022-12-20T10:14:42;10.40;96.70
3416;DHT22;1721;51.238;9.562;2022-12-20T10:17:57;10.40;96.30
3416;DHT22;1721;51.238;9.562;2022-12-20T10:20:23;10.40;96.50
3416;DHT22;1721;51.238;9.562;2022-12-20T10:25:23;10.30;96.40
3416;DHT22;1721;51.238;9.562;2022-12-20T10:27:51;10.30;96.50
3416;DHT22;1721;51.238;9.562;2022-12-20T10:30:21;10.10;96.60
3416;DHT22;1721;51.238;9.562;2022-12-20T10:32:49;10.00;96.60
3416;DHT22;1721;51.238;9.562;2022-12-20T10:35:39;10.10;96.60
3416;DHT22;1721;51.238;9.562;2022-12-20T10:38:07;10.00;96.70
3416;DHT22;1721;51.238;9.562;2022-12-20T10:43:22;10.20;96.60
3416;DHT22;1721;51.238;9.562;2022-12-20T10:46:00;10.20;96.60
3416;DHT22;1721;51.238;9.562;2022-12-20T10:48:33;10.30;96.60
3416;DHT22;1721;51.238;9.562;2022-12-20T10:53:34;10.30;96.50
3416;DHT22;1721;51.238;9.562;2022-12-20T10:58:40;10.30;96.30
3416;DHT22;1721;51.238;9.562;2022-12-20T11:01:15;10.50;96.40
3416;DHT22;1721;51.238;9.562;2022-12-20T11:04:02;10.60;96.10
3416;DHT22;1721;51.238;9.562;2022-12-20T11:06:40;10.60;96.20
3416;DHT22;1721;51.238;9.562;2022-12-20T11:09:30;10.60;95.70
3416;DHT22;1721;51.238;9.562;2022-12-20T11:12:13;10.60;95.80
3416;DHT22;1721;51.238;9.562;2022-12-20T11:14:40;10.60;95.80
3416;DHT22;1721;51.238;9.562;2022-12-20T11:17:30;10.50;95.90
3416;DHT22;1721;51.238;9.562;2022-12-20T11:20:27;10.20;96.30
3416;DHT22;1721;51.238;9.562;2022-12-20T11:25:55;10.20;96.70
3416;DHT22;1721;51.238;9.562;2022-12-20T11:39:37;10.70;96.20
3416;DHT22;1721;51.238;9.562;2022-12-20T11:45:40;10.60;96.20
3416;DHT22;1721;51.238;9.562;2022-12-20T11:51:01;10.60;96.30
3416;DHT22;1721;51.238;9.562;2022-12-20T11:53:38;10.60;96.20
3416;DHT22;1721;51.238;9.562;2022-12-20T11:56:15;10.60;96.30
3416;DHT22;1721;51.238;9.562;2022-12-20T11:58:54;10.70;96.30
3416;DHT22;1721;51.238;9.562;2022-12-20T12:01:39;10.70;96.20
3416;DHT22;1721;51.238;9.562;2022-12-20T12:06:38;10.70;96.10
3416;DHT22;1721;51.238;9.562;2022-12-20T12:09:29;10.70;96.10
3416;DHT22;1721;51.238;9.562;2022-12-20T12:12:27;10.70;96.20
3416;DHT22;1721;51.238;9.562;2022-12-20T12:17:44;10.70;96.30
3416;DHT22;1721;51.238;9.562;2022-12-20T12:22:39;10.80;96.30
3416;DHT22;1721;51.238;9.562;2022-12-20T12:25:12;10.80;96.10
3416;DHT22;1721;51.238;9.562;2022-12-20T12:27:38;10.80;96.20
3416;DHT22;1721;51.238;9.562;2022-12-20T12:30:04;10.90;96.00
3416;DHT22;1721;51.238;9.562;2022-12-20T12:32:36;11.00;96.20
3416;DHT22;1721;51.238;9.562;2022-12-20T12:38:22;10.90;96.00
3416;DHT22;1721;51.238;9.562;2022-12-20T12:46:42;10.80;96.00
3416;DHT22;1721;51.238;9.562;2022-12-20T12:49:13;11.00;96.10
3416;DHT22;1721;51.238;9.562;2022-12-20T12:51:48;11.00;95.70
3416;DHT22;1721;51.238;9.562;2022-12-20T12:54:21;10.90;96.00
3416;DHT22;1721;51.238;9.562;2022-12-20T12:56:49;10.90;96.30
3416;DHT22;1721;51.238;9.562;2022-12-20T13:12:55;11.10;96.00
3416;DHT22;1721;51.238;9.562;2022-12-20T13:20:29;11.20;95.50
3416;DHT22;1721;51.238;9.562;2022-12-20T13:25:34;11.20;95.60
3416;DHT22;1721;51.238;9.562;2022-12-20T13:30:45;11.00;95.70
3416;DHT22;1721;51.238;9.562;2022-12-20T13:36:33;11.20;95.50
3416;DHT22;1721;51.238;9.562;2022-12-20T13:39:28;11.10;95.40
3416;DHT22;1721;51.238;9.562;2022-12-20T13:42:15;11.00;95.50
3416;DHT22;1721;51.238;9.562;2022-12-20T13:44:44;11.10;95.60
3416;DHT22;1721;51.238;9.562;2022-12-20T13:47:30;11.10;95.60
3416;DHT22;1721;51.238;9.562;2022-12-20T13:51:02;11.10;95.50
3416;DHT22;1721;51.238;9.562;2022-12-20T13:52:57;11.20;95.30
3416;DHT22;1721;51.238;9.562;2022-12-20T13:55:37;10.90;95.80
3416;DHT22;1721;51.238;9.562;2022-12-20T13:58:16;10.90;95.80
3416;DHT22;1721;51.238;9.562;2022-12-20T14:00:43;11.00;95.80
3416;DHT22;1721;51.238;9.562;2022-12-20T14:03:28;11.00;95.70
3416;DHT22;1721;51.238;9.562;2022-12-20T14:06:03;11.00;95.40
3416;DHT22;1721;51.238;9.562;2022-12-20T14:08:35;10.90;95.50
3416;DHT22;1721;51.238;9.562;2022-12-20T14:11:17;11.20;95.50
3416;DHT22;1721;51.238;9.562;2022-12-20T14:13:51;11.10;95.30
3416;DHT22;1721;51.238;9.562;2022-12-20T14:16:19;11.30;95.20
3416;DHT22;1721;51.238;9.562;2022-12-20T14:18:49;11.30;95.00
3416;DHT22;1721;51.238;9.562;2022-12-20T14:21:15;11.20;95.10
3416;DHT22;1721;51.238;9.562;2022-12-20T14:23:45;11.20;95.10
3416;DHT22;1721;51.238;9.562;2022-12-20T14:26:25;11.00;95.10
3416;DHT22;1721;51.238;9.562;2022-12-20T14:28:53;11.00;95.20
3416;DHT22;1721;51.238;9.562;2022-12-20T14:31:42;10.80;95.50
3416;DHT22;1721;51.238;9.562;2022-12-20T14:36:42;10.60;95.50
3416;DHT22;1721;51.238;9.562;2022-12-20T14:39:29;10.60;95.60
3416;DHT22;1721;51.238;9.562;2022-12-20T14:44:23;10.70;95.40
3416;DHT22;1721;51.238;9.562;2022-12-20T14:47:45;10.60;95.30
3416;DHT22;1721;51.238;9.562;2022-12-20T14:49:50;10.60;95.50
3416;DHT22;1721;51.238;9.562;2022-12-20T14:52:33;10.50;95.40
3416;DHT22;1721;51.238;9.562;2022-12-20T14:55:03;10.30;95.50
3416;DHT22;1721;51.238;9.562;2022-12-20T14:57:38;10.50;95.50
3416;DHT22;1721;51.238;9.562;2022-12-20T15:00:20;10.50;95.20
3416;DHT22;1721;51.238;9.562;2022-12-20T15:08:13;10.50;95.20
3416;DHT22;1721;51.238;9.562;2022-12-20T15:10:52;10.40;95.20
3416;DHT22;1721;51.238;9.562;2022-12-20T15:13:20;10.30;95.30
3416;DHT22;1721;51.238;9.562;2022-12-20T15:15:46;10.20;95.50
3416;DHT22;1721;51.238;9.562;2022-12-20T15:18:17;10.20;95.40
3416;DHT22;1721;51.238;9.562;2022-12-20T15:20:45;10.20;95.50
3416;DHT22;1721;51.238;9.562;2022-12-20T15:23:16;10.40;95.30
3416;DHT22;1721;51.238;9.562;2022-12-20T15:25:44;10.30;95.10
3416;DHT22;1721;51.238;9.562;2022-12-20T15:28:28;10.10;95.30
3416;DHT22;1721;51.238;9.562;2022-12-20T15:30:54;10.10;95.50
3416;DHT22;1721;51.238;9.562;2022-12-20T15:33:22;10.00;95.60
3416;DHT22;1721;51.238;9.562;2022-12-20T15:35:48;10.00;95.50
3416;DHT22;1721;51.238;9.562;2022-12-20T15:38:23;9.80;96.20
3416;DHT22;1721;51.238;9.562;2022-12-20T15:40:51;9.80;96.10
3416;DHT22;1721;51.238;9.562;2022-12-20T15:43:19;9.80;96.20
3416;DHT22;1721;51.238;9.562;2022-12-20T15:45:48;9.80;96.10
3416;DHT22;1721;51.238;9.562;2022-12-20T15:48:20;9.90;96.10
3416;DHT22;1721;51.238;9.562;2022-12-20T15:50:52;9.80;96.20
3416;DHT22;1721;51.238;9.562;2022-12-20T15:53:40;9.90;96.20
3416;DHT22;1721;51.238;9.562;2022-12-20T15:56:05;9.90;96.10
3416;DHT22;1721;51.238;9.562;2022-12-20T15:58:30;10.00;95.60
3416;DHT22;1721;51.238;9.562;2022-12-20T16:00:59;9.80;96.10
3416;DHT22;1721;51.238;9.562;2022-12-20T16:03:30;9.90;96.20
3416;DHT22;1721;51.238;9.562;2022-12-20T16:05:56;9.70;96.50
3416;DHT22;1721;51.238;9.562;2022-12-20T16:08:22;9.70;96.50
3416;DHT22;1721;51.238;9.562;2022-12-20T16:10:50;9.70;96.50
3416;DHT22;1721;51.238;9.562;2022-12-20T16:13:22;9.80;96.50
3416;DHT22;1721;51.238;9.562;2022-12-20T16:15:48;9.70;96.30
3416;DHT22;1721;51.238;9.562;2022-12-20T16:18:14;9.70;96.50
3416;DHT22;1721;51.238;9.562;2022-12-20T16:20:40;9.70;96.50
3416;DHT22;1721;51.238;9.562;2022-12-20T16:23:17;9.70;96.50
3416;DHT22;1721;51.238;9.562;2022-12-20T16:25:44;9.80;96.60
3416;DHT22;1721;51.238;9.562;2022-12-20T16:28:10;9.90;96.20
3416;DHT22;1721;51.238;9.562;2022-12-20T16:30:36;9.90;96.30
3416;DHT22;1721;51.238;9.562;2022-12-20T16:33:02;9.80;96.10
3416;DHT22;1721;51.238;9.562;2022-12-20T16:35:29;9.90;96.10
3416;DHT22;1721;51.238;9.562;2022-12-20T16:37:56;9.90;96.00
3416;DHT22;1721;51.238;9.562;2022-12-20T16:40:24;9.90;96.20
3416;DHT22;1721;51.238;9.562;2022-12-20T16:42:51;9.90;96.00
3416;DHT22;1721;51.238;9.562;2022-12-20T16:45:20;10.00;95.70
3416;DHT22;1721;51.238;9.562;2022-12-20T16:47:47;10.10;95.50
3416;DHT22;1721;51.238;9.562;2022-12-20T16:50:13;10.10;95.20
3416;DHT22;1721;51.238;9.562;2022-12-20T16:52:39;10.20;95.20
3416;DHT22;1721;51.238;9.562;2022-12-20T16:55:05;10.10;95.20
3416;DHT22;1721;51.238;9.562;2022-12-20T16:57:31;10.00;95.40
3416;DHT22;1721;51.238;9.562;2022-12-20T16:59:56;9.90;95.90
3416;DHT22;1721;51.238;9.562;2022-12-20T17:04:48;9.70;96.20
3416;DHT22;1721;51.238;9.562;2022-12-20T17:07:13;9.80;96.30
3416;DHT22;1721;51.238;9.562;2022-12-20T17:09:39;9.80;96.30
3416;DHT22;1721;51.238;9.562;2022-12-20T17:12:15;9.80;96.30
3416;DHT22;1721;51.238;9.562;2022-12-20T17:14:41;9.90;96.50
3416;DHT22;1721;51.238;9.562;2022-12-20T17:17:07;10.00;95.50
3416;DHT22;1721;51.238;9.562;2022-12-20T17:19:32;10.10;95.50
3416;DHT22;1721;51.238;9.562;2022-12-20T17:21:58;10.20;95.60
3416;DHT22;1721;51.238;9.562;2022-12-20T17:24:24;10.40;95.30
3416;DHT22;1721;51.238;9.562;2022-12-20T17:26:50;10.40;95.10
3416;DHT22;1721;51.238;9.562;2022-12-20T17:29:16;10.50;94.90
3416;DHT22;1721;51.238;9.562;2022-12-20T17:31:44;10.20;94.90
3416;DHT22;1721;51.238;9.562;2022-12-20T17:34:29;10.10;95.30
3416;DHT22;1721;51.238;9.562;2022-12-20T17:36:56;10.20;95.10
3416;DHT22;1721;51.238;9.562;2022-12-20T17:39:23;10.10;95.40
3416;DHT22;1721;51.238;9.562;2022-12-20T17:41:49;10.20;95.60
3416;DHT22;1721;51.238;9.562;2022-12-20T17:44:23;10.30;95.40
3416;DHT22;1721;51.238;9.562;2022-12-20T17:46:49;10.40;95.20
3416;DHT22;1721;51.238;9.562;2022-12-20T17:49:15;10.40;95.00
3416;DHT22;1721;51.238;9.562;2022-12-20T17:51:41;10.50;94.90
3416;DHT22;1721;51.238;9.562;2022-12-20T17:54:26;10.50;94.80
3416;DHT22;1721;51.238;9.562;2022-12-20T17:56:53;10.40;94.70
3416;DHT22;1721;51.238;9.562;2022-12-20T17:59:19;10.40;94.80
3416;DHT22;1721;51.238;9.562;2022-12-20T18:01:46;10.40;94.70
3416;DHT22;1721;51.238;9.562;2022-12-20T18:04:14;10.40;94.50
3416;DHT22;1721;51.238;9.562;2022-12-20T18:06:41;10.10;94.70
3416;DHT22;1721;51.238;9.562;2022-12-20T18:09:13;10.20;94.90
3416;DHT22;1721;51.238;9.562;2022-12-20T18:11:40;10.30;95.10
3416;DHT22;1721;51.238;9.562;2022-12-20T18:14:05;10.20;94.70
3416;DHT22;1721;51.238;9.562;2022-12-20T18:16:32;10.00;95.00
3416;DHT22;1721;51.238;9.562;2022-12-20T18:18:59;10.00;94.90